Bundyville, New York
Current Conditions -  °F | °C
As of 12:54 AM on Thursday 27 Nov 2014 (Local Time) from KFZY Reporting Station
Light Snow Light Snow  
Wind Chill: 24°   Ceiling: 2200
Heat Index: 30°   Visibility: 3mi
Dew Point: 26°   Wind: 6mph
Humidity: 85%   Direction: 340°NNW
Pressure: 30"   Gusts: NA
Location:  43.4571°N, 76.4163°W
Report Text: KFZY 270554Z AUTO 34005KT 3SM -SN BR SCT016 BKN022 OVC040 M01/M03 A3000 RMK AO2 SLP165 P0000 60001 T10111033 11011 21017 58003
Loading
Personal Weather Stations






























Interactive Weather Map New forecast layout! Learn more

10-Day Weather Forecast

Advertisements
Track Severe Weather on mobile